Time;durP1;ratioP1;P1;durP2;ratioP2;P2;SDS_P1;SDS_P2;PMS_P1;PMS_P2;Temp;Humidity;BMP_temperature;BMP_pressure;BME280_temperature;BME280_humidity;BME280_pressure;Samples;Min_cycle;Max_cycle;Signal;HPM_P1;HPM_P2
2024/03/11 00:00:46;;;;;;;3.88;2.90;;;7.20;1.00;;;;;;7375811;19;20026;-71
2024/03/11 00:03:16;;;;;;;3.17;2.88;;;7.20;1.00;;;;;;7378497;19;20094;-71
2024/03/11 00:05:46;;;;;;;4.60;3.05;;;7.20;1.00;;;;;;7376672;19;20027;-71
2024/03/11 00:08:21;;;;;;;3.42;2.70;;;7.20;1.00;;;;;;7377946;19;20070;-71
2024/03/11 00:10:55;;;;;;;3.20;2.80;;;7.30;1.00;;;;;;7378095;19;20010;-71
2024/03/11 00:13:32;;;;;;;3.17;2.88;;;7.30;1.00;;;;;;7377199;19;20014;-70
2024/03/11 00:16:06;;;;;;;2.85;2.42;;;7.20;1.00;;;;;;7372415;19;20089;-70
2024/03/11 00:18:36;;;;;;;2.50;2.30;;;7.20;1.00;;;;;;7377127;19;20085;-72
2024/03/11 00:21:07;;;;;;;2.92;2.63;;;7.30;1.00;;;;;;7373502;19;20018;-70
2024/03/11 00:23:37;;;;;;;3.35;2.80;;;7.20;1.00;;;;;;7376145;19;20486;-70
2024/03/11 00:26:08;;;;;;;4.82;3.42;;;7.20;1.00;;;;;;7354246;19;20018;-72
2024/03/11 00:28:41;;;;;;;3.20;2.60;;;7.20;1.00;;;;;;7377505;19;20090;-71
2024/03/11 00:31:12;;;;;;;3.90;2.95;;;7.20;1.00;;;;;;7375978;19;20022;-72
2024/03/11 00:33:42;;;;;;;3.30;2.97;;;7.20;1.00;;;;;;7375859;19;20408;-70
2024/03/11 00:36:13;;;;;;;3.20;2.75;;;7.10;1.00;;;;;;7376412;19;20487;-72
2024/03/11 00:38:43;;;;;;;3.08;2.50;;;7.20;1.00;;;;;;7377647;19;20017;-72
2024/03/11 00:41:13;;;;;;;4.07;2.75;;;7.10;1.00;;;;;;7376731;19;20010;-72
2024/03/11 00:43:46;;;;;;;3.05;2.75;;;7.10;1.00;;;;;;7375889;19;20056;-72
2024/03/11 00:46:16;;;;;;;3.30;2.85;;;7.10;1.00;;;;;;7375691;19;21307;-71
2024/03/11 00:48:47;;;;;;;3.80;2.70;;;7.20;1.00;;;;;;7376408;19;20441;-71
2024/03/11 00:51:17;;;;;;;2.63;2.40;;;7.10;1.00;;;;;;7376850;19;20027;-72
2024/03/11 00:53:47;;;;;;;2.80;2.42;;;7.20;1.00;;;;;;7376201;19;20030;-72
2024/03/11 00:56:17;;;;;;;2.60;2.40;;;7.20;1.00;;;;;;7374157;19;20080;-72
2024/03/11 00:58:50;;;;;;;4.78;2.47;;;7.10;1.00;;;;;;7375646;19;20030;-72
2024/03/11 01:01:20;;;;;;;3.47;2.35;;;7.10;1.00;;;;;;7375372;19;20359;-72
2024/03/11 01:03:51;;;;;;;3.92;2.30;;;7.10;1.00;;;;;;7377489;19;20031;-72
2024/03/11 01:06:21;;;;;;;2.92;2.22;;;7.20;1.00;;;;;;7375563;19;20034;-72
2024/03/11 01:08:51;;;;;;;2.47;2.28;;;7.20;1.00;;;;;;7375012;19;20021;-73
2024/03/11 01:11:21;;;;;;;2.72;2.20;;;7.20;1.00;;;;;;7377614;19;20015;-72
2024/03/11 01:13:53;;;;;;;2.55;2.33;;;7.20;1.00;;;;;;7375115;19;20015;-72
2024/03/11 01:16:24;;;;;;;2.65;2.30;;;7.20;1.00;;;;;;7373789;19;20081;-72
2024/03/11 01:18:54;;;;;;;3.35;2.45;;;7.20;1.00;;;;;;7375361;19;20014;-72
2024/03/11 01:21:24;;;;;;;3.28;2.55;;;7.20;1.00;;;;;;7376108;19;20017;-72
2024/03/11 01:23:55;;;;;;;2.72;2.42;;;7.10;1.00;;;;;;7373779;19;20847;-72
2024/03/11 01:26:26;;;;;;;2.85;2.55;;;7.10;1.00;;;;;;7373972;19;20018;-72
2024/03/11 01:28:56;;;;;;;3.05;2.63;;;7.10;1.00;;;;;;7373568;19;20013;-72
2024/03/11 01:31:28;;;;;;;3.17;2.63;;;7.10;1.00;;;;;;7374086;19;20018;-72
2024/03/11 01:33:59;;;;;;;3.10;2.50;;;7.10;1.00;;;;;;7380417;19;20509;-73
2024/03/11 01:36:34;;;;;;;3.72;2.95;;;7.10;1.00;;;;;;7382176;19;20374;-72
2024/03/11 01:39:08;;;;;;;4.63;3.00;;;7.00;1.00;;;;;;7383544;19;20010;-71
2024/03/11 01:41:39;;;;;;;2.85;2.53;;;7.00;7.40;;;;;;7382815;19;20098;-71
2024/03/11 01:44:12;;;;;;;4.18;3.13;;;7.10;14.90;;;;;;7382129;19;20010;-71
2024/03/11 01:46:44;;;;;;;3.38;3.05;;;7.00;15.30;;;;;;7381227;19;20648;-71
2024/03/11 01:49:16;;;;;;;3.47;2.97;;;7.10;19.40;;;;;;7381602;19;20015;-71
2024/03/11 01:51:47;;;;;;;3.58;3.10;;;7.00;21.20;;;;;;7380924;19;20011;-72
2024/03/11 01:54:18;;;;;;;3.92;3.03;;;6.90;22.30;;;;;;7382329;19;20881;-72
2024/03/11 01:56:49;;;;;;;3.25;2.95;;;6.90;27.50;;;;;;7381238;19;20003;-72
2024/03/11 01:59:22;;;;;;;3.67;2.75;;;6.90;28.70;;;;;;7380451;19;20024;-72
2024/03/11 02:01:53;;;;;;;3.33;3.00;;;6.90;31.00;;;;;;7379853;19;20030;-71
2024/03/11 02:04:23;;;;;;;4.13;3.25;;;6.90;38.70;;;;;;7377824;19;20035;-73
2024/03/11 02:06:53;;;;;;;3.30;2.92;;;6.90;36.60;;;;;;7376870;19;20002;-72
2024/03/11 02:09:23;;;;;;;3.92;3.50;;;6.80;40.10;;;;;;7383501;19;20494;-72
2024/03/11 02:11:53;;;;;;;3.22;2.92;;;6.70;45.10;;;;;;7379204;19;20017;-71
2024/03/11 02:14:26;;;;;;;3.40;2.60;;;6.70;53.30;;;;;;7382286;19;20022;-72
2024/03/11 02:16:58;;;;;;;4.13;2.90;;;6.70;51.70;;;;;;7381119;19;20075;-72
2024/03/11 02:19:28;;;;;;;3.17;2.53;;;6.70;53.00;;;;;;7376284;19;20006;-72
2024/03/11 02:21:58;;;;;;;3.75;2.63;;;6.60;49.00;;;;;;7380557;19;20026;-72
2024/03/11 02:24:31;;;;;;;3.22;2.63;;;6.60;45.70;;;;;;7381591;19;19999;-72
2024/03/11 02:27:02;;;;;;;3.03;2.65;;;6.60;47.40;;;;;;7379736;19;20020;-72
2024/03/11 02:29:32;;;;;;;2.63;2.30;;;6.60;44.70;;;;;;7380375;19;20010;-72
2024/03/11 02:32:02;;;;;;;2.97;2.47;;;6.50;46.60;;;;;;7379832;19;20010;-72
2024/03/11 02:34:33;;;;;;;2.40;2.15;;;6.40;44.90;;;;;;7380616;19;20022;-72
2024/03/11 02:37:03;;;;;;;3.17;2.20;;;6.40;46.60;;;;;;7379579;19;20013;-72
2024/03/11 02:39:36;;;;;;;3.08;2.60;;;6.30;46.50;;;;;;7379806;19;20031;-71
2024/03/11 02:42:06;;;;;;;2.72;2.45;;;6.30;46.50;;;;;;7380503;19;20463;-71
2024/03/11 02:44:38;;;;;;;3.17;2.50;;;6.30;46.50;;;;;;7377795;19;20074;-71
2024/03/11 02:47:09;;;;;;;3.45;2.67;;;6.30;48.10;;;;;;7379541;19;20010;-70
2024/03/11 02:49:39;;;;;;;2.53;2.33;;;6.30;52.30;;;;;;7379511;19;20010;-70
2024/03/11 02:52:09;;;;;;;2.97;2.60;;;6.20;48.90;;;;;;7379422;19;20350;-71
2024/03/11 02:54:40;;;;;;;2.65;2.30;;;6.20;55.50;;;;;;7380272;19;20035;-71
2024/03/11 02:57:10;;;;;;;2.70;2.30;;;6.20;55.10;;;;;;7380832;19;20546;-71
2024/03/11 02:59:42;;;;;;;4.10;3.00;;;6.20;58.70;;;;;;7379769;19;20846;-70
2024/03/11 03:02:12;;;;;;;3.17;2.72;;;6.10;61.50;;;;;;7379646;19;20014;-71
2024/03/11 03:04:42;;;;;;;3.63;2.88;;;6.10;67.40;;;;;;7379925;19;20015;-69
2024/03/11 03:07:13;;;;;;;5.28;3.00;;;6.10;67.70;;;;;;7379035;19;20038;-71
2024/03/11 03:09:46;;;;;;;3.08;2.78;;;6.10;70.70;;;;;;7379900;19;20357;-71
2024/03/11 03:12:18;;;;;;;3.25;2.63;;;6.10;73.00;;;;;;7379701;19;20011;-71
2024/03/11 03:14:48;;;;;;;3.38;2.78;;;6.00;69.20;;;;;;7378914;19;20017;-72
2024/03/11 03:17:18;;;;;;;3.60;2.63;;;6.00;77.50;;;;;;7380446;19;20586;-71
2024/03/11 03:19:48;;;;;;;3.03;2.55;;;6.10;79.70;;;;;;7379753;19;20014;-71
2024/03/11 03:22:18;;;;;;;4.65;2.75;;;5.90;73.80;;;;;;7379881;19;20021;-71
2024/03/11 03:24:52;;;;;;;2.85;2.55;;;5.90;77.30;;;;;;7378692;19;20482;-71
2024/03/11 03:27:22;;;;;;;2.95;2.22;;;5.90;83.50;;;;;;7378846;19;20007;-71
2024/03/11 03:29:53;;;;;;;2.85;2.30;;;5.90;87.40;;;;;;7379617;19;20098;-71
2024/03/11 03:32:23;;;;;;;4.45;2.47;;;5.90;83.70;;;;;;7379704;19;20815;-71
2024/03/11 03:34:53;;;;;;;3.08;2.78;;;5.80;80.20;;;;;;7377753;19;20032;-71
2024/03/11 03:37:24;;;;;;;2.30;2.03;;;5.80;79.80;;;;;;7377660;19;20027;-71
2024/03/11 03:39:56;;;;;;;2.60;1.98;;;5.80;77.50;;;;;;7378288;19;20014;-71
2024/03/11 03:42:27;;;;;;;3.28;2.33;;;5.80;77.80;;;;;;7378683;19;20073;-71
2024/03/11 03:44:57;;;;;;;4.20;2.13;;;5.70;70.00;;;;;;7377298;19;20010;-71
2024/03/11 03:47:31;;;;;;;2.90;2.60;;;5.70;68.90;;;;;;7379434;19;20014;-71
2024/03/11 03:50:02;;;;;;;4.23;2.17;;;5.70;70.70;;;;;;7379283;19;20040;-70
2024/03/11 03:52:32;;;;;;;2.72;2.38;;;5.60;71.30;;;;;;7378721;19;20239;-71
2024/03/11 03:55:05;;;;;;;2.67;1.90;;;5.60;66.50;;;;;;7376740;19;20011;-71
2024/03/11 03:57:35;;;;;;;3.22;2.20;;;5.60;65.40;;;;;;7371642;19;20014;-71
2024/03/11 04:00:15;;;;;;;2.80;2.50;;;5.50;65.20;;;;;;7377973;19;20006;-70
2024/03/11 04:02:46;;;;;;;2.80;2.50;;;5.50;63.70;;;;;;7378264;19;20651;-71
2024/03/11 04:05:20;;;;;;;3.13;2.20;;;5.50;69.80;;;;;;7377904;19;20039;-71
2024/03/11 04:07:50;;;;;;;3.30;2.42;;;5.50;69.60;;;;;;7377780;19;20844;-71
2024/03/11 04:10:23;;;;;;;3.88;2.60;;;5.40;63.90;;;;;;7378622;19;20010;-71
2024/03/11 04:12:57;;;;;;;2.92;2.35;;;5.40;66.30;;;;;;7377623;19;20014;-71
2024/03/11 04:15:29;;;;;;;4.28;2.20;;;5.30;69.70;;;;;;7376872;19;20881;-71
2024/03/11 04:18:05;;;;;;;3.95;2.33;;;5.30;72.50;;;;;;7374293;19;20459;-72
2024/03/11 04:20:35;;;;;;;4.05;2.50;;;5.30;72.50;;;;;;7377481;19;20006;-71
2024/03/11 04:23:07;;;;;;;3.47;2.25;;;5.40;73.20;;;;;;7377103;19;20014;-72
2024/03/11 04:25:41;;;;;;;2.78;1.98;;;5.30;72.40;;;;;;7376815;19;20370;-72
2024/03/11 04:28:13;;;;;;;2.92;2.33;;;5.30;71.50;;;;;;7378059;19;20027;-72
2024/03/11 04:30:44;;;;;;;3.55;2.08;;;5.20;69.80;;;;;;7373753;19;20011;-70
2024/03/11 04:33:16;;;;;;;3.22;2.10;;;5.30;71.50;;;;;;7376869;19;20010;-70
2024/03/11 04:35:48;;;;;;;2.50;2.28;;;5.30;67.20;;;;;;7375579;19;20035;-70
2024/03/11 04:38:19;;;;;;;3.50;2.45;;;5.20;64.80;;;;;;7378788;19;20014;-71
2024/03/11 04:40:52;;;;;;;2.88;2.47;;;5.10;60.90;;;;;;7376753;19;20014;-71
2024/03/11 04:43:22;;;;;;;2.92;2.45;;;5.20;65.10;;;;;;7379245;19;20486;-70
2024/03/11 04:45:52;;;;;;;3.80;2.38;;;5.10;63.50;;;;;;7375559;19;20014;-70
2024/03/11 04:48:23;;;;;;;3.85;2.65;;;5.10;68.00;;;;;;7376488;19;20014;-70
2024/03/11 04:50:53;;;;;;;3.13;2.20;;;5.00;67.20;;;;;;7377366;19;20051;-70
2024/03/11 04:53:23;;;;;;;2.40;2.20;;;5.00;68.10;;;;;;7376565;19;20777;-70
2024/03/11 04:55:57;;;;;;;3.83;2.53;;;5.00;69.20;;;;;;7376533;19;20007;-70
2024/03/11 04:58:27;;;;;;;2.78;2.20;;;4.90;70.30;;;;;;7378401;19;20021;-70
2024/03/11 05:00:57;;;;;;;3.67;2.83;;;4.90;71.40;;;;;;7377337;19;20010;-70
2024/03/11 05:03:27;;;;;;;4.70;2.75;;;4.90;76.90;;;;;;7375569;19;20014;-70
2024/03/11 05:05:57;;;;;;;4.68;2.78;;;4.90;76.80;;;;;;7376548;19;20014;-70
2024/03/11 05:08:27;;;;;;;3.88;2.72;;;4.80;76.30;;;;;;7383000;19;20010;-69
2024/03/11 05:11:00;;;;;;;4.50;2.80;;;4.80;79.20;;;;;;7383881;19;20007;-71
2024/03/11 05:13:30;;;;;;;4.03;3.25;;;4.80;82.40;;;;;;7381643;19;20007;-70
2024/03/11 05:16:00;;;;;;;3.78;3.05;;;4.80;85.00;;;;;;7383054;19;20078;-70
2024/03/11 05:18:30;;;;;;;3.25;2.90;;;4.80;86.70;;;;;;7383994;19;20125;-70
2024/03/11 05:21:01;;;;;;;4.07;2.80;;;4.80;83.10;;;;;;7384450;19;20021;-70
2024/03/11 05:23:32;;;;;;;4.35;2.88;;;4.80;84.90;;;;;;7385125;19;20028;-70
2024/03/11 05:26:05;;;;;;;5.43;2.50;;;4.80;81.90;;;;;;7383057;19;20095;-70
2024/03/11 05:28:35;;;;;;;5.45;2.80;;;4.90;79.50;;;;;;7385829;19;20027;-70
2024/03/11 05:31:08;;;;;;;2.88;2.60;;;4.90;73.30;;;;;;7385222;19;20031;-71
2024/03/11 05:33:38;;;;;;;3.60;2.47;;;4.90;67.70;;;;;;7384237;19;20020;-70
2024/03/11 05:39:09;;;;;;;3.45;2.45;;;4.90;59.40;;;;;;7384186;19;20015;-71
2024/03/11 05:41:43;;;;;;;2.88;2.10;;;4.90;54.40;;;;;;7380807;19;20011;-70
2024/03/11 05:44:15;;;;;;;3.90;1.90;;;5.00;45.70;;;;;;7377196;19;20398;-70
2024/03/11 05:46:45;;;;;;;2.78;2.00;;;5.00;36.80;;;;;;7379713;19;20435;-69
2024/03/11 05:49:16;;;;;;;4.53;2.10;;;5.00;32.40;;;;;;7380091;19;20034;-69
2024/03/11 05:51:46;;;;;;;3.08;2.30;;;5.00;28.70;;;;;;7380607;19;20023;-70
2024/03/11 05:54:18;;;;;;;2.42;1.95;;;5.00;26.00;;;;;;7381574;19;20014;-71
2024/03/11 05:56:56;;;;;;;4.95;2.13;;;5.00;26.30;;;;;;7378080;19;20043;-72
2024/03/11 05:59:26;;;;;;;3.95;2.20;;;5.00;26.10;;;;;;7381426;19;20015;-71
2024/03/11 06:01:59;;;;;;;2.70;2.30;;;5.00;26.90;;;;;;7381427;19;20007;-71
2024/03/11 06:04:29;;;;;;;3.38;2.33;;;5.00;26.70;;;;;;7380748;19;20007;-71
2024/03/11 06:06:59;;;;;;;4.50;2.30;;;5.10;22.90;;;;;;7380101;19;20368;-71
2024/03/11 06:09:29;;;;;;;6.65;2.65;;;5.10;19.00;;;;;;7380856;19;20018;-72
2024/03/11 06:12:02;;;;;;;2.60;2.40;;;5.20;16.80;;;;;;7380116;19;20027;-71
2024/03/11 06:14:33;;;;;;;6.25;3.03;;;5.30;9.20;;;;;;7380064;19;20006;-72
2024/03/11 06:17:06;;;;;;;3.75;2.67;;;5.30;5.60;;;;;;7380370;19;20003;-71
2024/03/11 06:19:37;;;;;;;5.13;3.20;;;5.40;1.00;;;;;;7379917;19;20014;-71
2024/03/11 06:22:09;;;;;;;3.40;2.58;;;5.40;1.00;;;;;;7381076;19;20031;-71
2024/03/11 06:24:40;;;;;;;5.95;3.13;;;5.40;1.00;;;;;;7380108;19;20074;-72
2024/03/11 06:27:14;;;;;;;5.90;2.65;;;5.50;1.00;;;;;;7381537;19;20042;-71
2024/03/11 06:29:45;;;;;;;4.82;2.28;;;5.50;1.00;;;;;;7381044;19;20006;-71
2024/03/11 06:32:16;;;;;;;3.55;2.33;;;5.50;1.00;;;;;;7379584;19;20003;-71
2024/03/11 06:34:46;;;;;;;3.42;2.22;;;5.60;1.00;;;;;;7378527;19;20015;-71
2024/03/11 06:37:16;;;;;;;2.95;2.60;;;5.60;1.00;;;;;;7382062;19;20966;-71
2024/03/11 06:39:46;;;;;;;4.10;3.00;;;5.60;1.00;;;;;;7381702;19;20372;-71
2024/03/11 06:42:20;;;;;;;3.75;2.78;;;5.70;1.00;;;;;;7380307;19;20011;-71
2024/03/11 06:44:50;;;;;;;4.50;2.90;;;5.80;1.00;;;;;;7381166;19;20026;-72
2024/03/11 06:47:20;;;;;;;3.83;2.83;;;5.80;1.00;;;;;;7382808;19;20053;-71
2024/03/11 06:49:51;;;;;;;6.05;2.80;;;6.00;1.00;;;;;;7380983;19;20011;-71
2024/03/11 06:52:21;;;;;;;3.53;2.85;;;6.10;1.00;;;;;;7381285;19;20010;-71
2024/03/11 06:54:52;;;;;;;4.70;2.53;;;6.20;1.00;;;;;;7380735;19;20010;-73
2024/03/11 06:57:24;;;;;;;5.25;2.88;;;6.30;1.00;;;;;;7382448;19;20011;-71
2024/03/11 06:59:54;;;;;;;4.65;3.17;;;6.40;1.00;;;;;;7382587;19;20030;-72
2024/03/11 07:02:24;;;;;;;4.88;3.17;;;6.50;1.00;;;;;;7380333;19;20113;-71
2024/03/11 07:04:56;;;;;;;4.82;2.78;;;6.60;1.00;;;;;;7377757;19;20049;-71
2024/03/11 07:07:27;;;;;;;5.93;3.03;;;6.70;1.00;;;;;;7380206;19;20002;-71
2024/03/11 07:09:57;;;;;;;6.35;2.60;;;6.80;1.00;;;;;;7378716;19;20006;-70
2024/03/11 07:12:30;;;;;;;2.10;1.90;;;6.90;1.00;;;;;;7379736;19;20011;-71
2024/03/11 07:15:02;;;;;;;2.95;2.13;;;6.90;1.00;;;;;;7381310;19;20022;-71
2024/03/11 07:17:32;;;;;;;2.78;2.03;;;7.10;1.00;;;;;;7380975;19;20014;-70
2024/03/11 07:20:07;;;;;;;2.38;2.05;;;7.20;1.00;;;;;;7379147;19;20048;-71
2024/03/11 07:22:38;;;;;;;4.03;2.00;;;7.30;1.00;;;;;;7381234;19;20027;-71
2024/03/11 07:25:10;;;;;;;3.28;1.60;;;7.40;1.00;;;;;;7372196;19;20010;-71
2024/03/11 07:27:46;;;;;;;2.53;1.67;;;7.60;1.00;;;;;;7377998;19;20034;-70
2024/03/11 07:30:22;;;;;;;5.28;1.50;;;7.70;1.00;;;;;;7377007;19;20007;-71
2024/03/11 07:33:06;;;;;;;1.60;1.10;;;7.80;1.00;;;;;;7378571;19;20463;-71
2024/03/11 07:35:41;;;;;;;1.10;1.00;;;7.80;1.00;;;;;;7379712;19;20011;-71
2024/03/11 07:38:12;;;;;;;3.10;1.25;;;7.90;1.00;;;;;;7376738;19;20015;-71
2024/03/11 07:40:43;;;;;;;5.47;1.70;;;8.10;1.00;;;;;;7372161;19;20506;-70
2024/03/11 07:43:18;;;;;;;3.28;1.95;;;8.20;1.00;;;;;;7379156;19;20015;-71
2024/03/11 07:45:48;;;;;;;3.90;1.98;;;8.20;1.00;;;;;;7378261;19;20535;-71
2024/03/11 07:48:19;;;;;;;15.68;9.60;;;8.30;1.00;;;;;;7377563;19;20025;-72
2024/03/11 07:50:49;;;;;;;2.10;1.55;;;8.40;1.00;;;;;;7378511;19;20025;-71
2024/03/11 07:53:20;;;;;;;3.88;1.67;;;8.40;1.00;;;;;;7377442;19;20121;-70
2024/03/11 07:55:50;;;;;;;2.30;1.20;;;8.50;1.00;;;;;;7376102;19;20475;-71
2024/03/11 07:58:23;;;;;;;1.30;0.95;;;8.60;1.00;;;;;;7376455;19;20011;-71
2024/03/11 08:00:54;;;;;;;2.10;0.90;;;8.70;1.00;;;;;;7378065;19;20074;-70
2024/03/11 08:03:24;;;;;;;1.55;0.82;;;8.70;1.00;;;;;;7376124;19;20458;-70
2024/03/11 08:05:56;;;;;;;2.88;1.00;;;8.80;1.00;;;;;;7375301;19;20014;-69
2024/03/11 08:08:26;;;;;;;2.22;1.10;;;8.90;1.00;;;;;;7375885;19;20014;-70
2024/03/11 08:10:57;;;;;;;2.92;1.05;;;8.90;1.00;;;;;;7377375;19;20695;-70
2024/03/11 08:13:30;;;;;;;2.38;1.00;;;9.00;1.00;;;;;;7376100;19;20007;-71
2024/03/11 08:16:00;;;;;;;2.42;0.90;;;9.10;1.00;;;;;;7373277;19;20481;-72
2024/03/11 08:18:30;;;;;;;1.13;0.77;;;9.20;1.00;;;;;;7375602;19;20479;-70
2024/03/11 08:21:00;;;;;;;7.50;2.63;;;9.20;1.00;;;;;;7375194;19;20601;-70
2024/03/11 08:23:30;;;;;;;4.00;1.10;;;9.30;1.00;;;;;;7373746;19;20017;-70
2024/03/11 08:26:01;;;;;;;2.50;0.93;;;9.40;1.00;;;;;;7373369;19;20018;-70
2024/03/11 08:28:38;;;;;;;2.60;1.10;;;9.40;1.00;;;;;;7376063;19;20015;-70
2024/03/11 08:31:08;;;;;;;2.17;0.70;;;9.50;1.00;;;;;;7375347;19;20358;-70
2024/03/11 08:33:39;;;;;;;1.73;0.95;;;9.60;1.00;;;;;;7375360;19;20010;-70
2024/03/11 08:36:10;;;;;;;1.30;1.00;;;9.70;1.00;;;;;;7372896;19;20086;-70
2024/03/11 08:38:40;;;;;;;3.30;1.20;;;9.80;1.00;;;;;;7373876;19;20009;-70
2024/03/11 08:41:11;;;;;;;3.00;1.30;;;9.80;1.00;;;;;;7374591;19;20483;-70
2024/03/11 08:43:44;;;;;;;7.03;1.25;;;9.80;1.00;;;;;;7380121;19;20009;-69
2024/03/11 08:46:16;;;;;;;5.15;1.60;;;9.90;1.00;;;;;;7380680;19;20017;-69
2024/03/11 08:48:46;;;;;;;4.85;1.20;;;10.10;1.00;;;;;;7382090;19;20148;-70
2024/03/11 08:51:17;;;;;;;6.63;1.40;;;10.20;1.00;;;;;;7382610;19;20354;-69
2024/03/11 08:53:47;;;;;;;3.10;1.10;;;10.40;1.00;;;;;;7381122;19;20053;-70
2024/03/11 08:56:17;;;;;;;4.05;1.75;;;10.40;1.00;;;;;;7379397;19;20011;-69
2024/03/11 08:58:50;;;;;;;6.68;1.35;;;10.60;1.00;;;;;;7380350;19;20015;-69
2024/03/11 09:01:21;;;;;;;2.05;0.90;;;10.60;1.00;;;;;;7380904;19;20022;-69
2024/03/11 09:03:51;;;;;;;1.92;0.98;;;10.70;1.00;;;;;;7382297;19;20491;-69
2024/03/11 09:06:22;;;;;;;6.22;1.17;;;10.70;1.00;;;;;;7380790;19;20018;-69
2024/03/11 09:08:52;;;;;;;2.78;1.00;;;10.60;1.00;;;;;;7383093;19;20043;-69
2024/03/11 09:11:22;;;;;;;2.05;0.93;;;10.70;1.00;;;;;;7382724;19;20078;-69
2024/03/11 09:13:57;;;;;;;1.00;0.70;;;10.70;1.00;;;;;;7381908;19;20070;-70
2024/03/11 09:16:27;;;;;;;1.58;0.70;;;10.80;1.00;;;;;;7373487;19;20007;-70
2024/03/11 09:18:57;;;;;;;3.20;0.85;;;10.90;1.00;;;;;;7381285;19;20021;-70
2024/03/11 09:21:29;;;;;;;1.20;0.73;;;11.00;1.00;;;;;;7379481;19;20014;-70
2024/03/11 09:24:01;;;;;;;2.60;0.77;;;11.10;1.00;;;;;;7381969;19;20458;-70
2024/03/11 09:26:32;;;;;;;2.45;0.70;;;11.20;1.00;;;;;;7379341;19;20003;-70
2024/03/11 09:29:04;;;;;;;4.47;1.05;;;11.40;1.00;;;;;;7380751;19;20027;-70
2024/03/11 09:31:35;;;;;;;1.80;0.70;;;11.50;1.00;;;;;;7380312;19;20021;-71
2024/03/11 09:34:07;;;;;;;2.05;0.90;;;11.60;1.00;;;;;;7381305;19;20418;-70
2024/03/11 09:36:38;;;;;;;2.67;0.77;;;11.60;1.00;;;;;;7379470;19;20105;-69
2024/03/11 09:39:11;;;;;;;1.73;0.70;;;11.70;1.00;;;;;;7380643;19;20376;-70
2024/03/11 09:41:44;;;;;;;0.95;0.60;;;11.70;1.00;;;;;;7380224;19;20007;-70
2024/03/11 09:44:20;;;;;;;1.38;0.80;;;11.80;1.00;;;;;;7379930;19;20006;-71
2024/03/11 09:46:51;;;;;;;1.63;0.47;;;11.80;1.00;;;;;;7379291;19;20022;-70
2024/03/11 09:49:24;;;;;;;2.33;0.85;;;11.90;1.00;;;;;;7380536;19;20014;-70
2024/03/11 09:51:55;;;;;;;2.22;0.57;;;11.90;1.00;;;;;;7379978;19;20014;-70
2024/03/11 09:54:28;;;;;;;1.58;0.60;;;12.00;1.00;;;;;;7376174;19;20002;-70
2024/03/11 09:56:59;;;;;;;3.45;0.70;;;12.20;1.00;;;;;;7380251;19;20012;-70
2024/03/11 09:59:32;;;;;;;1.55;0.70;;;12.10;1.00;;;;;;7382161;19;20018;-71
2024/03/11 10:02:03;;;;;;;1.35;0.70;;;12.20;1.00;;;;;;7377279;19;20002;-70
2024/03/11 10:04:33;;;;;;;0.70;0.43;;;12.50;1.00;;;;;;7379250;19;20010;-70
2024/03/11 10:07:04;;;;;;;2.20;0.60;;;12.40;1.00;;;;;;7377996;19;20493;-70
2024/03/11 10:09:44;;;;;;;4.53;0.75;;;12.20;1.00;;;;;;7377828;19;20010;-70
2024/03/11 10:12:15;;;;;;;3.67;0.47;;;12.30;1.00;;;;;;7379063;19;20010;-70
2024/03/11 10:14:50;;;;;;;1.20;0.60;;;12.50;1.00;;;;;;7377439;19;20084;-70
2024/03/11 10:17:23;;;;;;;1.02;0.68;;;12.40;1.00;;;;;;7378806;19;20010;-70
2024/03/11 10:19:58;;;;;;;5.38;0.90;;;12.50;1.00;;;;;;7380184;19;20031;-70
2024/03/11 10:22:30;;;;;;;0.70;0.50;;;12.50;1.00;;;;;;7380890;19;20339;-70
2024/03/11 10:25:01;;;;;;;2.28;0.80;;;12.60;1.00;;;;;;7378978;19;20002;-70
2024/03/11 10:27:39;;;;;;;2.75;1.42;;;12.70;1.00;;;;;;7381272;19;20010;-69
2024/03/11 10:30:27;;;;;;;0.63;0.52;;;12.80;1.00;;;;;;7378461;19;20050;-70
2024/03/11 10:33:01;;;;;;;3.45;1.00;;;12.90;1.00;;;;;;7378106;19;20011;-69
2024/03/11 10:35:39;;;;;;;4.43;0.88;;;13.00;1.00;;;;;;7379468;19;20010;-70
2024/03/11 10:38:12;;;;;;;5.15;0.82;;;13.20;1.00;;;;;;7377009;19;20044;-70
2024/03/11 10:40:45;;;;;;;0.70;0.40;;;13.00;1.00;;;;;;7377996;19;20367;-70
2024/03/11 10:43:24;;;;;;;1.23;0.80;;;13.10;1.00;;;;;;7378093;19;20014;-71
2024/03/11 10:45:58;;;;;;;0.80;0.60;;;13.30;1.00;;;;;;7377031;19;20759;-70
2024/03/11 10:48:32;;;;;;;1.23;0.50;;;13.30;1.00;;;;;;7378867;19;20026;-71
2024/03/11 10:51:04;;;;;;;0.90;0.60;;;13.40;1.00;;;;;;7377596;19;19998;-70
2024/03/11 10:53:34;;;;;;;1.52;0.70;;;13.40;1.00;;;;;;7377854;19;20018;-70
2024/03/11 10:56:10;;;;;;;5.10;0.90;;;13.60;1.00;;;;;;7376273;19;20010;-70
2024/03/11 10:58:42;;;;;;;1.10;0.50;;;13.90;1.00;;;;;;7378310;19;20014;-70
2024/03/11 11:01:16;;;;;;;3.65;0.80;;;13.90;1.00;;;;;;7374464;19;20011;-69
2024/03/11 11:03:52;;;;;;;;;;;14.10;1.00;;;;;;7377637;19;20013;-70
2024/03/11 11:06:27;;;;;;;0.65;0.50;;;13.80;1.00;;;;;;7375825;19;20238;-70
2024/03/11 11:08:57;;;;;;;0.77;0.60;;;13.60;1.00;;;;;;7377623;19;20335;-71
2024/03/11 11:11:28;;;;;;;1.15;0.63;;;13.40;1.00;;;;;;7377794;19;20541;-70
2024/03/11 11:13:58;;;;;;;0.60;0.50;;;13.60;1.00;;;;;;7377525;19;20125;-69
2024/03/11 11:16:32;;;;;;;2.63;0.77;;;13.60;1.00;;;;;;7376842;19;20006;-69
2024/03/11 11:19:03;;;;;;;1.45;0.70;;;13.50;1.00;;;;;;7379537;19;20081;-70
2024/03/11 11:21:34;;;;;;;3.50;0.85;;;13.40;1.00;;;;;;7378591;19;20015;-70
2024/03/11 11:24:26;;;;;;;3.40;0.50;;;13.40;1.00;;;;;;7376888;19;20018;-70
2024/03/11 11:27:01;;;;;;;2.72;1.00;;;13.30;1.00;;;;;;6865604;19;2005528;-70
2024/03/11 11:29:31;;;;;;;2.95;0.60;;;13.30;1.00;;;;;;7376070;19;20014;-70
2024/03/11 11:32:07;;;;;;;1.77;0.60;;;12.80;1.00;;;;;;7376098;19;20002;-70
2024/03/11 11:34:55;;;;;;;2.83;0.75;;;12.90;1.00;;;;;;7375513;19;20093;-70
2024/03/11 11:37:40;;;;;;;1.42;0.60;;;12.90;1.00;;;;;;7375286;19;20511;-70
2024/03/11 11:40:29;;;;;;;2.67;1.05;;;12.90;1.00;;;;;;7377318;19;20011;-70
2024/03/11 11:43:01;;;;;;;4.85;1.63;;;12.80;1.00;;;;;;7375908;19;20037;-70
2024/03/11 11:45:54;;;;;;;2.13;0.95;;;12.40;1.00;;;;;;7374886;19;20039;-71
2024/03/11 11:48:31;;;;;;;1.60;0.70;;;11.80;1.00;;;;;;7374025;19;20007;-71
2024/03/11 11:51:02;;;;;;;1.55;0.70;;;11.50;1.00;;;;;;7374224;19;20014;-72
2024/03/11 11:53:36;;;;;;;3.15;0.70;;;11.50;1.00;;;;;;7376497;19;20044;-71
2024/03/11 11:56:24;;;;;;;6.40;0.75;;;11.50;1.00;;;;;;7375512;19;20019;-70
2024/03/11 11:59:04;;;;;;;1.80;0.82;;;11.60;1.00;;;;;;7375998;19;20505;-70
2024/03/11 12:01:48;;;;;;;1.35;0.63;;;11.50;1.00;;;;;;7373587;19;20010;-70
2024/03/11 12:04:21;;;;;;;2.08;0.90;;;11.70;1.00;;;;;;7376664;19;20036;-70
2024/03/11 12:06:52;;;;;;;1.13;0.73;;;12.00;1.00;;;;;;7375275;19;20093;-72
2024/03/11 12:09:23;;;;;;;1.55;0.70;;;11.90;1.00;;;;;;7377431;19;20087;-70
2024/03/11 12:11:58;;;;;;;0.93;0.70;;;12.00;1.00;;;;;;7378134;19;20019;-71
2024/03/11 12:14:30;;;;;;;3.25;0.82;;;12.20;1.00;;;;;;7377826;19;20018;-69
2024/03/11 12:17:07;;;;;;;1.42;0.47;;;12.20;1.00;;;;;;7375506;19;20010;-69
2024/03/11 12:19:41;;;;;;;2.70;0.60;;;12.30;1.00;;;;;;7374073;19;20589;-69
2024/03/11 12:22:14;;;;;;;0.95;0.60;;;12.40;1.00;;;;;;7375895;19;20552;-70
2024/03/11 12:24:45;;;;;;;0.90;0.52;;;12.40;1.00;;;;;;7377658;19;20032;-70
2024/03/11 12:27:16;;;;;;;1.38;0.50;;;12.40;1.00;;;;;;7376300;19;20037;-71
2024/03/11 12:29:46;;;;;;;1.20;0.60;;;12.60;1.00;;;;;;7376738;19;20010;-70
2024/03/11 12:32:17;;;;;;;4.38;0.70;;;13.00;1.00;;;;;;7375611;19;20010;-70
2024/03/11 12:34:50;;;;;;;2.38;0.50;;;13.70;1.00;;;;;;7375513;19;20021;-71
2024/03/11 12:37:20;;;;;;;0.90;0.40;;;13.40;1.00;;;;;;7375956;19;20011;-70
2024/03/11 12:39:50;;;;;;;0.85;0.30;;;13.30;1.00;;;;;;7376781;19;20014;-70
2024/03/11 12:42:28;;;;;;;3.78;0.50;;;13.20;1.00;;;;;;7374984;19;20007;-70
2024/03/11 12:45:01;;;;;;;0.75;0.50;;;13.20;1.00;;;;;;7374962;19;20025;-70
2024/03/11 12:47:31;;;;;;;0.90;0.45;;;13.00;1.00;;;;;;7375668;19;20018;-72
2024/03/11 12:50:05;;;;;;;1.50;0.40;;;13.00;1.00;;;;;;7375889;19;20039;-69
2024/03/11 12:52:36;;;;;;;1.65;0.40;;;13.00;1.00;;;;;;7377164;19;20011;-70
2024/03/11 12:55:14;;;;;;;0.50;0.30;;;13.20;1.00;;;;;;7374067;19;20019;-70
2024/03/11 12:57:46;;;;;;;1.15;0.60;;;13.30;1.00;;;;;;7375537;19;20018;-70
2024/03/11 13:00:22;;;;;;;0.60;0.38;;;13.00;1.00;;;;;;7376276;19;20094;-70
2024/03/11 13:03:08;;;;;;;0.40;0.30;;;13.00;1.00;;;;;;7372737;19;20010;-70
2024/03/11 13:05:41;;;;;;;0.47;0.30;;;12.70;1.00;;;;;;7373596;19;20583;-70
2024/03/11 13:08:12;;;;;;;1.77;0.50;;;12.90;1.00;;;;;;7376263;19;20017;-71
2024/03/11 13:10:42;;;;;;;0.90;0.47;;;12.90;1.00;;;;;;7378906;19;20007;-70
2024/03/11 13:13:19;;;;;;;1.10;0.40;;;12.80;1.00;;;;;;7375575;19;20010;-72
2024/03/11 13:15:50;;;;;;;0.80;0.50;;;12.70;1.00;;;;;;7372162;19;20066;-71
2024/03/11 13:18:21;;;;;;;1.20;0.60;;;12.80;1.00;;;;;;7374768;19;20098;-70
2024/03/11 13:20:55;;;;;;;1.20;0.68;;;12.70;1.00;;;;;;7373524;19;20015;-68
2024/03/11 13:23:27;;;;;;;0.98;0.55;;;12.70;1.00;;;;;;7371760;19;20022;-69
2024/03/11 13:25:57;;;;;;;0.88;0.30;;;12.60;1.00;;;;;;7373002;19;20010;-69
2024/03/11 13:28:28;;;;;;;0.63;0.40;;;12.50;1.00;;;;;;7377548;19;20007;-70